Latest Weather Observations for Sheoaks

IDV60901

Issued at 10:01 pm EST Friday 23 June 2017 (issued every 10 minutes, with the page automatically refreshed every 10 minutes)

About weather observations | Map of Melbourne area stations | Latest observations for Melbourne area | Other Formats
Station Details ID: 087168 Name: SHEOAKS Lat: -37.91 Lon: 144.13 Height: 236.7 m
Data from the previous 72 hours. | See also: Recent months at Sheoaks
Date/Time
EST
Temp
°C
App
Temp
°C
Dew
Point
°C
Rel
Hum
%
Delta-T
°C
Wind Press
QNH
hPa
Press
MSL
hPa
Rain since
9am
mm
Dir  Spd
km/h
Gust
km/h
Spd
kts
Gust
kts
23/10:00pm 9.7 7.2 8.1 90 0.8 W 11 19 6 10 1014.8 1015.1 0.4
23/09:30pm 9.7 6.0 8.1 90 0.8 W 17 24 9 13 1014.7 1015.0 0.4
23/09:00pm 9.9 6.8 7.2 83 1.3 WNW 13 22 7 12 1014.4 1014.7 0.0
23/08:30pm 9.5 5.8 6.4 81 1.5 NW 15 20 8 11 1014.1 1014.4 0.0
23/08:00pm 9.4 6.0 6.1 80 1.5 NW 13 22 7 12 1014.1 1014.4 0.0
23/07:30pm 9.8 6.1 6.3 79 1.6 NW 15 24 8 13 1013.8 1014.1 0.0
23/07:00pm 10.0 6.7 6.5 79 1.7 NNW 13 20 7 11 1013.5 1013.8 0.0
23/06:30pm 9.8 6.2 6.7 81 1.5 NNW 15 22 8 12 1013.3 1013.6 0.0
23/06:00pm 10.1 6.1 6.6 79 1.7 NW 17 24 9 13 1013.2 1013.5 0.0
23/05:30pm 10.6 6.9 6.4 75 2.0 NW 15 22 8 12 1013.1 1013.4 0.0
23/05:00pm 10.4 6.8 6.7 78 1.8 NW 15 22 8 12 1013.2 1013.5 0.0
23/04:30pm 11.3 7.1 5.8 69 2.6 NW 17 24 9 13 1013.1 1013.4 0.0
23/04:00pm 11.3 6.7 5.8 69 2.6 NW 19 33 10 18 1013.1 1013.4 0.0
23/03:30pm 11.5 6.9 5.8 68 2.7 NW 19 32 10 17 1013.0 1013.3 0.0
23/03:00pm 12.1 6.6 5.7 65 3.0 NW 24 35 13 19 1012.9 1013.2 0.0
23/02:30pm 11.9 6.8 5.8 66 2.9 NW 22 32 12 17 1013.0 1013.3 0.0
23/02:00pm 12.6 6.7 6.0 64 3.2 NW 26 35 14 19 1013.2 1013.5 0.0
23/01:30pm 12.3 7.5 5.5 63 3.2 NW 20 35 11 19 1013.5 1013.8 0.0
23/01:00pm 12.3 6.8 5.7 64 3.1 NNW 24 37 13 20 1013.6 1013.9 0.0
23/12:30pm 12.4 6.5 6.0 65 3.1 NNW 26 43 14 23 1014.1 1014.4 0.0
23/12:10pm 12.2 5.9 5.6 64 3.1 NNW 28 48 15 26 1014.4 1014.7 0.0
23/12:00pm 12.1 6.2 5.7 65 3.0 NNW 26 46 14 25 1014.7 1015.0 0.0
23/11:35am 11.8 5.6 6.1 68 2.7 NNW 28 46 15 25 1015.2 1015.5 0.0
23/11:30am 11.5 4.8 5.8 68 2.7 NNW 30 46 16 25 1015.3 1015.6 0.0
23/11:03am 11.1 3.9 6.0 71 2.4 NNW 33 56 18 30 1016.0 1016.3 0.0
23/11:00am 10.9 3.7 5.7 70 2.4 NNW 33 48 18 26 1015.7 1016.1 0.0
23/10:53am 10.9 4.3 5.9 71 2.4 NNW 30 48 16 26 1016.0 1016.3 0.0
23/10:30am 10.1 4.6 6.1 76 1.9 NNW 24 39 13 21 1016.6 1016.9 0.0
23/10:00am 9.9 4.1 6.1 77 1.8 NNW 26 37 14 20 1017.0 1017.3 0.0
23/09:32am 9.5 3.2 5.7 77 1.8 NNW 28 46 15 25 1017.1 1017.4 0.0
23/09:30am 9.4 3.1 5.6 77 1.8 NNW 28 43 15 23 1017.0 1017.3 0.0
23/09:00am 8.8 3.6 5.4 79 1.6 NNW 22 33 12 18 1017.2 1017.5 0.0
23/08:30am 8.1 3.2 5.0 81 1.4 NNW 20 32 11 17 1017.3 1017.6 0.0
23/08:00am 7.8 2.9 4.9 82 1.3 NNW 20 32 11 17 1017.4 1017.7 0.0
23/07:30am 7.7 2.7 4.8 82 1.3 NNW 20 33 11 18 1017.5 1017.8 0.0
23/07:00am 7.8 3.0 4.7 81 1.4 NW 19 28 10 15 1017.5 1017.8 0.0
23/06:30am 8.2 2.9 5.0 80 1.4 NNW 22 35 12 19 1017.4 1017.7 0.0
23/06:00am 8.2 3.3 5.0 80 1.4 NNW 20 35 11 19 1017.4 1017.7 0.0
23/05:30am 8.3 3.7 5.4 82 1.3 NNW 19 30 10 16 1017.3 1017.6 0.0
23/05:00am 8.4 3.8 5.5 82 1.3 NNW 19 28 10 15 1017.5 1017.8 0.0
23/04:30am 8.9 4.3 5.6 80 1.5 NNW 19 32 10 17 1017.7 1018.0 0.0
23/04:00am 8.9 5.1 5.8 81 1.4 NNW 15 26 8 14 1018.3 1018.6 0.0
23/03:30am 8.8 5.1 6.1 83 1.3 NNW 15 22 8 12 1018.8 1019.1 0.0
23/03:00am 8.8 4.7 6.1 83 1.2 NNW 17 28 9 15 1019.0 1019.3 0.0
23/02:30am 8.7 4.2 6.0 83 1.2 N 19 28 10 15 1019.5 1019.9 0.0
23/02:00am 8.9 4.3 5.6 80 1.5 NNW 19 28 10 15 1019.8 1020.2 0.0
23/01:30am 9.3 5.1 5.7 78 1.7 NNW 17 28 9 15 1019.8 1020.2 0.0
23/01:00am 9.6 5.4 5.8 77 1.8 NNW 17 24 9 13 1020.3 1020.7 0.0
23/12:30am 9.6 5.0 5.6 76 1.8 NNW 19 28 10 15 1020.6 1020.9 0.0
23/12:00am 9.7 4.9 5.7 76 1.8 NNW 20 28 11 15 1020.9 1021.2 0.0
 
Date/Time
EST
Temp
°C
App
Temp
°C
Dew
Point
°C
Rel
Hum
%
Delta-T
°C
Wind Press
QNH
hPa
Press
MSL
hPa
Rain since
9am
mm
Dir  Spd
km/h
Gust
km/h
Spd
kts
Gust
kts
22/11:30pm 9.9 5.4 5.9 76 1.9 NNW 19 26 10 14 1021.3 1021.6 0.0
22/11:00pm 9.7 5.5 5.7 76 1.8 NNW 17 28 9 15 1021.6 1021.9 0.0
22/10:30pm 9.5 5.3 5.5 76 1.8 NNW 17 26 9 14 1021.9 1022.2 0.0
22/10:00pm 9.5 5.6 5.5 76 1.8 NNW 15 20 8 11 1022.2 1022.5 0.0
22/09:30pm 9.5 5.6 5.5 76 1.8 NNW 15 20 8 11 1022.4 1022.7 0.0
22/09:00pm 9.2 5.7 5.4 77 1.7 NNW 13 19 7 10 1022.5 1022.8 0.0
22/08:30pm 9.4 6.0 5.8 78 1.7 NNW 13 19 7 10 1022.8 1023.1 0.0
22/08:00pm 9.8 6.8 6.0 77 1.8 NNW 11 17 6 9 1023.0 1023.4 0.0
22/07:30pm 10.2 6.8 6.0 75 2.0 NNW 13 24 7 13 1023.0 1023.4 0.0
22/07:00pm 10.4 6.7 6.2 75 2.0 NNW 15 24 8 13 1023.2 1023.6 0.0
22/06:30pm 10.4 6.7 6.2 75 2.0 NNW 15 20 8 11 1023.2 1023.6 0.0
22/06:00pm 10.4 6.7 6.4 76 1.9 NNW 15 20 8 11 1023.2 1023.6 0.0
22/05:30pm 10.4 7.5 6.7 78 1.8 NNW 11 15 6 8 1023.2 1023.6 0.0
22/05:00pm 10.6 7.7 6.7 77 1.9 NNW 11 15 6 8 1023.1 1023.5 0.0
22/04:30pm 11.4 8.2 6.9 74 2.2 NNW 13 19 7 10 1023.2 1023.6 0.0
22/04:00pm 11.9 8.7 7.0 72 2.4 NNW 13 19 7 10 1023.3 1023.7 0.0
22/03:30pm 11.8 9.1 7.3 74 2.2 NNW 11 22 6 12 1023.6 1024.0 0.0
22/03:00pm 11.6 8.8 7.1 74 2.2 NNW 11 17 6 9 1024.1 1024.5 0.0
22/02:30pm 11.5 8.3 6.8 73 2.3 NW 13 22 7 12 1024.4 1024.8 0.0
22/02:00pm 11.8 8.6 6.9 72 2.4 NW 13 24 7 13 1024.7 1025.1 0.0
22/01:30pm 12.0 8.4 6.9 71 2.5 NW 15 22 8 12 1025.0 1025.3 0.0
22/01:00pm 11.9 7.9 6.6 70 2.5 NW 17 26 9 14 1025.4 1025.7 0.0
22/12:30pm 12.2 9.8 7.1 71 2.5 NW 9 17 5 9 1025.7 1026.0 0.0
22/12:00pm 11.9 9.4 6.4 69 2.6 NW 9 17 5 9 1026.2 1026.5 0.0
22/11:30am 11.9 10.7 8.0 77 1.9 NW 4 6 2 3 1026.6 1027.0 0.0
22/11:00am 10.4 8.8 6.5 77 1.8 W 4 7 2 4 1027.0 1027.4 0.0
22/10:30am 9.9 7.6 5.9 76 1.9 NNW 7 11 4 6 1027.2 1027.6 0.0
22/10:00am 9.7 7.3 5.1 73 2.1 N 7 11 4 6 1027.3 1027.7 0.0
22/09:30am 8.6 6.1 5.0 78 1.6 NNW 7 15 4 8 1027.2 1027.6 0.0
22/09:00am 7.7 4.0 4.5 80 1.4 N 13 19 7 10 1027.1 1027.5 0.2
22/08:30am 6.7 3.8 4.4 85 1.0 NNW 9 15 5 8 1027.3 1027.7 0.2
22/08:00am 6.3 3.3 4.0 85 1.0 NNW 9 15 5 8 1027.4 1027.8 0.2
22/07:30am 5.8 3.2 4.1 89 0.7 N 7 11 4 6 1027.6 1028.0 0.2
22/07:00am 5.7 3.1 4.0 89 0.7 NNW 7 9 4 5 1027.3 1027.7 0.2
22/06:30am 5.6 2.6 4.2 91 0.6 N 9 13 5 7 1026.9 1027.3 0.2
22/06:00am 5.3 2.4 4.4 94 0.4 NNW 9 11 5 6 1027.0 1027.4 0.2
22/05:30am 5.2 1.9 4.6 96 0.3 N 11 15 6 8 1026.9 1027.3 0.2
22/05:00am 4.9 1.6 4.3 96 0.3 N 11 15 6 8 1027.0 1027.4 0.2
22/04:30am 4.6 2.0 4.2 97 0.2 N 7 9 4 5 1027.3 1027.7 0.2
22/04:00am 4.4 1.7 3.8 96 0.3 N 7 9 4 5 1027.2 1027.6 0.2
22/03:30am 4.3 1.2 3.7 96 0.3 N 9 9 5 5 1027.5 1027.9 0.2
22/03:00am 4.2 1.5 3.5 95 0.3 N 7 9 4 5 1027.4 1027.8 0.2
22/02:30am 5.3 2.9 4.3 93 0.4 N 6 7 3 4 1027.4 1027.8 0.2
22/02:00am 5.9 4.7 4.5 91 0.6 CALM 0 0 0 0 1027.5 1027.9 0.2
22/01:30am 7.0 5.2 5.6 91 0.6 NNW 4 7 2 4 1027.7 1028.1 0.2
22/01:00am 7.1 5.0 5.7 91 0.6 N 6 7 3 4 1027.9 1028.3 0.2
22/12:30am 7.3 5.2 5.9 91 0.6 NNW 6 7 3 4 1028.2 1028.6 0.2
22/12:00am 7.5 5.8 6.0 90 0.7 NNW 4 6 2 3 1028.4 1028.8 0.2
 
Date/Time
EST
Temp
°C
App
Temp
°C
Dew
Point
°C
Rel
Hum
%
Delta-T
°C
Wind Press
QNH
hPa
Press
MSL
hPa
Rain since
9am
mm
Dir  Spd
km/h
Gust
km/h
Spd
kts
Gust
kts
21/11:30pm 7.8 6.5 5.9 88 0.9 SSE 2 6 1 3 1028.3 1028.7 0.2
21/11:00pm 8.3 7.5 6.3 87 0.9 CALM 0 2 0 1 1028.6 1029.0 0.2
21/10:30pm 8.5 6.4 6.5 87 0.9 NE 7 9 4 5 1028.7 1029.1 0.2
21/10:00pm 8.3 6.8 6.9 91 0.7 NE 4 7 2 4 1029.0 1029.4 0.2
21/09:30pm 7.8 6.3 6.7 93 0.5 N 4 6 2 3 1029.4 1029.7 0.2
21/09:00pm 7.5 5.9 6.4 93 0.5 NNE 4 4 2 2 1029.4 1029.7 0.2
21/08:30pm 7.3 5.3 6.1 92 0.6 N 6 7 3 4 1029.5 1029.8 0.2
21/08:00pm 7.5 6.2 6.0 90 0.7 NE 2 4 1 2 1029.4 1029.7 0.2
21/07:30pm 7.9 6.9 5.5 85 1.1 CALM 0 2 0 1 1029.3 1029.6 0.2
21/07:00pm 8.5 7.1 5.6 82 1.3 SE 2 4 1 2 1029.0 1029.4 0.2
21/06:30pm 8.7 6.6 5.8 82 1.3 SE 6 7 3 4 1028.7 1029.1 0.2
21/06:00pm 9.3 8.6 6.9 85 1.1 CALM 0 2 0 1 1028.4 1028.8 0.2
21/05:30pm 9.8 9.1 7.1 83 1.3 CALM 0 0 0 0 1028.2 1028.6 0.2
21/05:00pm 10.3 9.1 6.3 76 1.9 S 2 2 1 1 1028.2 1028.6 0.2
21/04:30pm 10.7 9.9 6.5 75 2.0 CALM 0 0 0 0 1028.2 1028.6 0.2
21/04:00pm 10.8 9.6 6.4 74 2.1 SSE 2 6 1 3 1028.2 1028.6 0.2
21/03:30pm 10.9 9.3 6.5 74 2.1 SSE 4 6 2 3 1028.0 1028.4 0.2
21/03:00pm 11.0 10.5 7.7 80 1.6 CALM 0 0 0 0 1028.1 1028.5 0.2
21/02:30pm 10.7 9.7 7.4 80 1.6 S 2 4 1 2 1028.1 1028.5 0.2
21/02:00pm 11.1 10.5 7.2 77 1.9 CALM 0 2 0 1 1028.3 1028.7 0.0
21/01:30pm 10.8 10.0 8.2 84 1.3 S 2 4 1 2 1028.3 1028.7 0.0
21/01:00pm 10.3 8.6 7.7 84 1.3 S 6 7 3 4 1028.4 1028.8 0.0
21/12:30pm 11.2 10.0 7.9 80 1.6 S 4 7 2 4 1028.5 1028.9 0.0
21/12:00pm 11.0 9.9 8.4 84 1.3 S 4 6 2 3 1028.6 1029.0 0.0
21/11:30am 11.2 9.9 7.7 79 1.7 SW 4 6 2 3 1028.9 1029.3 0.0
21/11:00am 11.3 10.1 8.2 81 1.5 SSW 4 7 2 4 1029.0 1029.4 0.0
21/10:30am 11.0 10.0 8.9 87 1.1 WSW 4 9 2 5 1029.0 1029.4 0.0
21/10:00am 10.8 10.1 10.2 96 0.3 NNW 4 6 2 3 1028.9 1029.3 0.0
21/09:30am 9.9 9.1 9.6 98 0.2 NNW 4 4 2 2 1028.7 1029.1 0.0
21/09:00am 9.3 8.7 9.0 98 0.1 NNW 2 4 1 2 1028.5 1028.9 0.0
21/08:30am 9.2 8.2 8.9 98 0.1 NNW 4 4 2 2 1028.3 1028.7 0.0
21/08:00am 9.2 8.2 8.9 98 0.1 NNW 4 6 2 3 1028.0 1028.4 0.0
21/07:30am 9.2 7.8 8.7 97 0.2 WSW 6 9 3 5 1027.7 1028.1 0.0
21/07:00am 9.2 7.2 8.7 97 0.2 W 9 13 5 7 1027.5 1027.9 0.0
21/06:30am 9.1 7.5 8.6 97 0.2 WNW 7 11 4 6 1027.1 1027.5 0.0
21/06:00am 9.3 7.3 8.8 97 0.2 W 9 11 5 6 1026.8 1027.2 0.0
21/05:30am 9.3 7.3 8.7 96 0.3 W 9 11 5 6 1026.6 1027.0 0.0
21/05:00am 9.3 7.3 8.5 95 0.4 W 9 13 5 7 1026.3 1026.6 0.0
21/04:30am 9.3 7.2 8.4 94 0.4 W 9 15 5 8 1026.0 1026.3 0.0
21/04:00am 9.6 6.3 8.2 91 0.7 W 15 20 8 11 1026.0 1026.3 0.0
21/03:30am 10.3 8.0 7.4 82 1.4 WSW 9 17 5 9 1025.7 1026.0 0.0
21/03:00am 10.8 7.2 6.7 76 1.9 NW 15 26 8 14 1025.1 1025.4 0.0
21/02:30am 11.0 7.4 6.9 76 2.0 NW 15 22 8 12 1025.1 1025.4 0.0
21/02:00am 10.9 6.9 6.6 75 2.0 NW 17 24 9 13 1024.9 1025.2 0.0
21/01:30am 10.6 7.0 6.6 76 1.9 NW 15 22 8 12 1024.6 1025.0 0.0
21/01:00am 9.7 6.0 6.4 80 1.5 NW 15 20 8 11 1024.6 1025.0 0.0
21/12:30am 9.8 6.5 6.3 79 1.6 NW 13 19 7 10 1024.9 1025.2 0.0
21/12:00am 9.9 5.8 6.4 79 1.6 NW 17 22 9 12 1024.7 1025.1 0.0
 
Date/Time
EST
Temp
°C
App
Temp
°C
Dew
Point
°C
Rel
Hum
%
Delta-T
°C
Wind Press
QNH
hPa
Press
MSL
hPa
Rain since
9am
mm
Dir  Spd
km/h
Gust
km/h
Spd
kts
Gust
kts
20/11:30pm 9.9 6.6 6.4 79 1.7 NNW 13 20 7 11 1024.9 1025.2 0.0
20/11:00pm 10.3 6.7 6.8 79 1.7 NW 15 24 8 13 1025.0 1025.3 0.0
20/10:30pm 10.4 6.4 6.5 77 1.9 NW 17 28 9 15 1024.9 1025.2 0.0

Latest Capital City Observations: Canberra | Sydney | Melbourne | Brisbane | Adelaide | Perth | Hobart | Darwin

Other Formats:

Comma delimited format used in spreadsheet applications
http://www.bom.gov.au/fwo/IDV60901/IDV60901.94863.axf

JavaScript Object Notation format (JSON) in row-major order
http://www.bom.gov.au/fwo/IDV60901/IDV60901.94863.json